Wednesday, August 15, 2018, 11:58 PM EDT
Back to Local

KUCP, New Castle, New Castle Municipal Airport

Location: Edinburg, PA, United States Lat: 41.025
Local Time: 11:58 PM EDT ( 3:58 GMT) Lon: -80.413
Time Zone: US/Eastern Elev: 1072 ft

Show me the last for .
Show Decoded

2018-08-15 22:56 METAR KUCP 160256Z AUTO 00000KT 10SM CLR 23/22 A3008 RMK AO2 SLP191 T02330217
                 51008 =
2018-08-15 21:56 METAR KUCP 160156Z AUTO 00000KT 10SM CLR 23/22 A3007 RMK AO2 SLP190 T02280222 =
2018-08-15 20:56 METAR KUCP 160056Z AUTO 00000KT 10SM CLR 23/22 A3006 RMK AO2 SLP188 T02330222 =
2018-08-15 19:56 METAR KUCP 152356Z AUTO 00000KT 10SM CLR 24/23 A3005 RMK AO2 SLP185 T02440228
                 10289 20244 55001 =
2018-08-15 18:56 METAR KUCP 152256Z AUTO 00000KT 10SM CLR 27/24 A3005 RMK AO2 SLP182 T02720244 =
2018-08-15 17:56 METAR KUCP 152156Z AUTO 18003KT 10SM CLR 28/21 A3005 RMK AO2 SLP184 T02830211 =
2018-08-15 16:56 METAR KUCP 152056Z AUTO VRB03KT 10SM CLR 28/21 A3006 RMK AO2 SLP185 T02830206
                 58006 =
2018-08-15 15:56 METAR KUCP 151956Z AUTO 26006KT 10SM CLR 28/20 A3006 RMK AO2 SLP188 T02830200 =
2018-08-15 14:56 METAR KUCP 151856Z AUTO 28007KT 10SM CLR 28/19 A3007 RMK AO2 SLP190 T02830194 =
2018-08-15 13:56 METAR KUCP 151756Z AUTO 27006KT 10SM CLR 28/21 A3007 RMK AO2 SLP191 T02780206
                 10278 20172 51000 =
2018-08-15 12:56 METAR KUCP 151656Z AUTO 26006KT 10SM CLR 27/21 A3007 RMK AO2 SLP191 T02670206 =
2018-08-15 11:56 METAR KUCP 151556Z AUTO 25006KT 10SM CLR 27/21 A3007 RMK AO2 SLP191 T02670211 =
2018-08-15 10:56 METAR KUCP 151456Z AUTO 24005KT 10SM CLR 25/22 A3007 RMK AO2 SLP191 T02500217
                 51006 =
2018-08-15 09:56 METAR KUCP 151356Z AUTO 00000KT 10SM FEW050 22/22 A3007 RMK AO2 SLP190 T02220217
                 =
2018-08-15 08:56 METAR KUCP 151256Z AUTO 00000KT 8SM SCT050 20/20 A3006 RMK AO2 SLP188 T02000200
                 =
2018-08-15 08:21 METAR KUCP 151221Z AUTO 00000KT 5SM BR SCT044 18/18 A3006 RMK AO2 =
2018-08-15 08:06 METAR KUCP 151206Z AUTO 00000KT 2SM BR FEW009 BKN044 17/17 A3005 RMK AO2 =
2018-08-15 08:03 METAR KUCP 151203Z AUTO 00000KT 3/4SM BR FEW009 BKN044 17/17 A3005 RMK AO2 RVRNO
                 =
2018-08-15 07:56 METAR KUCP 151156Z AUTO 00000KT 1/4SM FG SCT009 BKN046 17/17 A3005 RMK AO2
                 SLP186 70012 T01720172 10172 20150 53011 RVRNO =
2018-08-15 07:48 METAR KUCP 151148Z AUTO 00000KT 1/2SM FG FEW008 17/17 A3005 RMK AO2 RVRNO =
2018-08-15 07:46 METAR KUCP 151146Z AUTO 00000KT 3/4SM BR VV011 17/17 A3005 RMK AO2 RVRNO =
2018-08-15 07:29 METAR KUCP 151129Z AUTO 00000KT 2 1/2SM BR CLR 16/16 A3004 RMK AO2 =
2018-08-15 06:56 METAR KUCP 151056Z AUTO 00000KT 9SM CLR 16/16 A3004 RMK AO2 SLP182 T01560156 =
2018-08-15 06:48 METAR KUCP 151048Z AUTO 00000KT 3SM BR CLR 15/15 A3004 RMK AO2 =
2018-08-15 06:43 METAR KUCP 151043Z AUTO 00000KT 1 1/4SM BR CLR 16/16 A3004 RMK AO2 VIS 1/2V4 =
2018-08-15 06:26 METAR KUCP 151026Z AUTO 00000KT 3/4SM BR CLR 15/15 A3003 RMK AO2 VIS 1/4V5 RVRNO
                 =
2018-08-15 06:10 METAR KUCP 151010Z AUTO 00000KT 1 1/4SM BR SCT024 15/15 A3003 RMK AO2 =
2018-08-15 06:06 METAR KUCP 151006Z AUTO 00000KT 3/4SM BR SCT024 15/15 A3003 RMK AO2 VIS 1/2V2
                 RVRNO =
2018-08-15 05:56 METAR KUCP 150956Z AUTO 00000KT 1/2SM FG BKN024 BKN028 15/15 A3003 RMK AO2
                 SLP178 T01500150 RVRNO =
2018-08-15 05:47 METAR KUCP 150947Z AUTO 00000KT 1/4SM FG BKN022 15/15 A3003 RMK AO2 RVRNO =
2018-08-15 05:38 METAR KUCP 150938Z AUTO 00000KT 3/4SM BR BKN022 15/15 A3002 RMK AO2 RVRNO =
2018-08-15 05:32 METAR KUCP 150932Z AUTO 00000KT 1 1/2SM BR SCT020 BKN025 16/16 A3002 RMK AO2 =
2018-08-15 05:28 METAR KUCP 150928Z AUTO 00000KT 1 1/2SM BR SCT018 16/16 A3002 RMK AO2 =
2018-08-15 05:25 METAR KUCP 150925Z AUTO 00000KT 3/4SM BR FEW002 SCT018 BKN023 16/16 A3002 RMK
                 AO2 RVRNO =
2018-08-15 05:09 METAR KUCP 150909Z AUTO 00000KT 1/4SM FG FEW002 OVC018 16/16 A3002 RMK AO2 RVRNO
                 =
2018-08-15 04:56 METAR KUCP 150856Z AUTO 00000KT 1/2SM FG SCT002 BKN018 16/16 A3002 RMK AO2
                 SLP174 T01560156 55000 RVRNO =
2018-08-15 04:48 METAR KUCP 150848Z AUTO 00000KT 3/4SM BR SCT002 BKN016 16/16 A3002 RMK AO2 RVRNO
                 =
2018-08-15 04:34 METAR KUCP 150834Z AUTO 00000KT 1/4SM FG SCT002 BKN016 16/16 A3002 RMK AO2 RVRNO
                 =
2018-08-15 04:29 METAR KUCP 150829Z AUTO 00000KT 1/2SM FG FEW002 SCT009 SCT016 16/16 A3002 RMK
                 AO2 RVRNO =
2018-08-15 04:27 METAR KUCP 150827Z AUTO 00000KT 1SM BR FEW004 SCT014 16/16 A3002 RMK AO2 VIS
                 1/4V5 RVRNO =
2018-08-15 04:17 METAR KUCP 150817Z AUTO 00000KT 2 1/2SM BR FEW009 SCT014 16/16 A3001 RMK AO2 =
2018-08-15 04:13 METAR KUCP 150813Z AUTO 00000KT 3SM BR SCT012 16/16 A3001 RMK AO2 TSNO =
2018-08-15 04:11 METAR KUCP 150811Z AUTO 00000KT 1 1/4SM BR SCT009 BKN014 16/16 A3001 RMK AO2 =
2018-08-15 04:02 METAR KUCP 150802Z AUTO 00000KT 1/2SM FG SCT004 BKN009 OVC014 16/16 A3001 RMK
                 AO2 CIG 007V011 RVRNO =
2018-08-15 03:59 METAR KUCP 150759Z AUTO 00000KT 3/4SM BR SCT006 BKN010 BKN015 16/16 A3001 RMK
                 AO2 CIG 008V013 RVRNO =
2018-08-15 03:56 METAR KUCP 150756Z AUTO 00000KT 1 1/4SM BR BKN006 BKN010 BKN015 16/16 A3001 RMK
                 AO2 CIG 003V007 SLP172 T01560156 =
2018-08-15 03:51 METAR KUCP 150751Z AUTO 00000KT 1 1/4SM BR SCT006 BKN009 16/16 A3001 RMK AO2 CIG
                 008V013 =
2018-08-15 03:48 METAR KUCP 150748Z AUTO 00000KT 3/4SM BR BKN006 BKN012 16/16 A3001 RMK AO2 CIG
                 003V009 RVRNO =
2018-08-15 03:36 METAR KUCP 150736Z AUTO 00000KT 1/4SM FG BKN004 BKN008 16/16 A3000 RMK AO2 CIG
                 003V007 RVRNO =
2018-08-15 03:28 METAR KUCP 150728Z AUTO 00000KT 1/2SM FG VV007 16/16 A3001 RMK AO2 RVRNO =
2018-08-15 03:19 METAR KUCP 150719Z AUTO 00000KT 3/4SM BR CLR 16/16 A3001 RMK AO2 VIS 1/2V2 RVRNO
                 =
2018-08-15 02:56 METAR KUCP 150656Z AUTO 00000KT 1 3/4SM BR CLR 16/16 A3001 RMK AO2 VIS 1V3
                 SLP172 T01610161 =
2018-08-15 02:43 METAR KUCP 150643Z AUTO 00000KT 2SM BR CLR 16/16 A3001 RMK AO2 VIS 1V3 =
2018-08-15 02:40 METAR KUCP 150640Z AUTO 00000KT 1SM BR CLR 16/16 A3001 RMK AO2 VIS 1/2V3 RVRNO =
2018-08-15 02:38 METAR KUCP 150638Z AUTO 00000KT 3/4SM BR VV010 16/16 A3001 RMK AO2 VIS 1/4V3
                 RVRNO =
2018-08-15 02:36 METAR KUCP 150636Z AUTO 00000KT 1/2SM FG VV008 16/16 A3001 RMK AO2 RVRNO =
2018-08-15 02:27 METAR KUCP 150627Z AUTO 00000KT 1/4SM FG SCT003 SCT009 16/16 A3001 RMK AO2 RVRNO
                 =
2018-08-15 02:17 METAR KUCP 150617Z AUTO 00000KT 1/2SM FG SCT003 BKN011 16/16 A3002 RMK AO2 RVRNO
                 =
2018-08-15 02:14 METAR KUCP 150614Z AUTO 00000KT 1/4SM FG BKN003 BKN011 16/16 A3002 RMK AO2 CIG
                 001V006 RVRNO =
2018-08-15 01:56 METAR KUCP 150556Z AUTO 00000KT 1/4SM FG SCT003 BKN011 17/17 A3002 RMK AO2 CIG
                 008V013 SLP173 T01670167 10206 20161 51005 RVRNO =
2018-08-15 01:36 METAR KUCP 150536Z AUTO 00000KT 1/4SM FG VV010 16/16 A3002 RMK AO2 RVRNO =
2018-08-15 01:26 METAR KUCP 150526Z AUTO 00000KT 1/2SM FG CLR 17/17 A3002 RMK AO2 RVRNO =
2018-08-15 01:20 METAR KUCP 150520Z AUTO 00000KT 1/4SM FG VV007 16/16 A3002 RMK AO2 RVRNO =
2018-08-15 01:12 METAR KUCP 150512Z AUTO 00000KT 1/2SM FG VV004 17/17 A3002 RMK AO2 RVRNO =
2018-08-15 00:58 METAR KUCP 150458Z AUTO 00000KT 1/2SM FG SCT004 BKN008 BKN012 17/17 A3001 RMK
                 AO2 RVRNO =
2018-08-15 00:56 METAR KUCP 150456Z AUTO 00000KT 1/4SM FG BKN004 BKN008 BKN012 17/17 A3001 RMK
                 AO2 CIG 002V006 SLP171 T01720172 402720167 RVRNO =
2018-08-15 00:29 METAR KUCP 150429Z AUTO 00000KT 1/4SM FG BKN005 BKN008 BKN014 17/17 A3001 RMK
                 AO2 CIG 002V007 RVRNO =

Support USWX by starting your Amazon purchase here.